createdAt,value
2018-03-22T00:02:08.748Z,-2.10
2018-03-22T00:04:36.948Z,-2.10
2018-03-22T00:07:05.244Z,-2.10
2018-03-22T00:09:33.423Z,-2.10
2018-03-22T00:12:01.668Z,-2.10
2018-03-22T00:14:29.890Z,-2.10
2018-03-22T00:16:59.211Z,-2.10
2018-03-22T00:19:27.363Z,-2.20
2018-03-22T00:21:55.772Z,-2.10
2018-03-22T00:24:25.284Z,-2.10
2018-03-22T00:26:58.160Z,-2.20
2018-03-22T00:29:31.075Z,-2.10
2018-03-22T00:32:04.788Z,-2.10
2018-03-22T00:34:39.559Z,-2.10
2018-03-22T00:37:10.921Z,-2.20
2018-03-22T00:39:42.075Z,-2.00
2018-03-22T00:42:12.511Z,-2.10
2018-03-22T00:44:41.936Z,-2.00
2018-03-22T00:47:15.127Z,-2.20
2018-03-22T00:49:45.815Z,-2.30
2018-03-22T00:52:14.654Z,-2.30
2018-03-22T00:54:43.162Z,-2.30
2018-03-22T00:57:11.406Z,-2.40
2018-03-22T00:59:40.401Z,-2.30
2018-03-22T01:02:08.526Z,-2.40
2018-03-22T01:04:36.648Z,-2.30
2018-03-22T01:07:04.786Z,-2.30
2018-03-22T01:09:32.912Z,-2.30
2018-03-22T01:12:01.095Z,-2.60
2018-03-22T01:14:29.219Z,-3.00
2018-03-22T01:16:57.383Z,-2.90
2018-03-22T01:19:25.550Z,-2.70
2018-03-22T01:21:54.476Z,-2.60
2018-03-22T01:24:22.611Z,-2.60
2018-03-22T01:26:51.537Z,-2.90
2018-03-22T01:29:19.681Z,-3.00
2018-03-22T01:31:47.832Z,-2.90
2018-03-22T01:34:15.962Z,-2.80
2018-03-22T01:36:44.094Z,-2.80
2018-03-22T01:39:12.261Z,-2.90
2018-03-22T01:41:40.385Z,-2.80
2018-03-22T01:44:08.519Z,-2.80
2018-03-22T01:46:36.655Z,-2.90
2018-03-22T01:49:04.800Z,-2.90
2018-03-22T01:51:32.947Z,-2.90
2018-03-22T01:54:01.196Z,-2.90
2018-03-22T01:56:29.306Z,-2.90
2018-03-22T01:58:57.442Z,-2.90
2018-03-22T02:01:26.337Z,-3.00
2018-03-22T02:03:54.483Z,-2.90
2018-03-22T02:06:22.621Z,-3.00
2018-03-22T02:08:50.777Z,-3.00
2018-03-22T02:11:19.006Z,-3.00
2018-03-22T02:13:47.923Z,-2.90
2018-03-22T02:16:16.057Z,-3.00
2018-03-22T02:18:44.221Z,-3.10
2018-03-22T02:21:12.354Z,-3.00
2018-03-22T02:23:40.487Z,-2.90
2018-03-22T02:26:09.431Z,-3.00
2018-03-22T02:28:37.578Z,-3.00
2018-03-22T02:31:05.707Z,-3.00
2018-03-22T02:33:33.830Z,-3.00
2018-03-22T02:36:01.968Z,-3.10
2018-03-22T02:38:30.857Z,-2.90
2018-03-22T02:40:59.763Z,-2.90
2018-03-22T02:43:27.895Z,-2.90
2018-03-22T02:45:56.028Z,-2.90
2018-03-22T02:48:24.162Z,-3.00
2018-03-22T02:50:52.315Z,-3.10
2018-03-22T02:53:20.454Z,-3.20
2018-03-22T02:55:48.584Z,-3.10
2018-03-22T02:58:16.702Z,-2.90
2018-03-22T03:00:44.857Z,-2.90
2018-03-22T03:03:12.977Z,-2.90
2018-03-22T03:05:41.097Z,-3.00
2018-03-22T03:08:09.238Z,-2.90
2018-03-22T03:10:37.382Z,-3.00
2018-03-22T03:13:05.531Z,-3.00
2018-03-22T03:15:33.768Z,-2.90
2018-03-22T03:18:01.919Z,-3.00
2018-03-22T03:20:31.235Z,-3.80
2018-03-22T03:22:59.385Z,-3.80
2018-03-22T03:25:27.516Z,-3.70
2018-03-22T03:27:55.661Z,-3.60
2018-03-22T03:30:23.857Z,-3.50
2018-03-22T03:32:51.999Z,-3.40
2018-03-22T03:35:20.133Z,-3.30
2018-03-22T03:37:48.278Z,-3.20
2018-03-22T03:40:17.330Z,-3.20
2018-03-22T03:42:45.470Z,-3.10
2018-03-22T03:45:13.615Z,-2.90
2018-03-22T03:47:41.745Z,-2.90
2018-03-22T03:50:09.894Z,-2.80
2018-03-22T03:52:38.786Z,-2.80
2018-03-22T03:55:07.704Z,-2.70
2018-03-22T03:57:35.888Z,-2.70
2018-03-22T04:00:04.127Z,-2.90
2018-03-22T04:02:32.274Z,-3.00
2018-03-22T04:05:00.438Z,-2.90
2018-03-22T04:07:28.559Z,-3.00
2018-03-22T04:09:56.699Z,-2.80
2018-03-22T04:12:24.835Z,-2.70
2018-03-22T04:14:52.982Z,-2.90
2018-03-22T04:17:21.172Z,-2.80
2018-03-22T04:19:49.307Z,-2.70
2018-03-22T04:22:18.248Z,-3.00
2018-03-22T04:24:46.396Z,-3.00
2018-03-22T04:27:14.563Z,-3.00
2018-03-22T04:29:42.714Z,-2.90
2018-03-22T04:32:10.860Z,-2.90
2018-03-22T04:34:39.020Z,-2.90
2018-03-22T04:37:07.175Z,-2.90
2018-03-22T04:39:35.325Z,-3.00
2018-03-22T04:42:03.466Z,-2.90
2018-03-22T04:44:32.364Z,-2.80
2018-03-22T04:47:01.284Z,-2.60
2018-03-22T04:49:29.425Z,-2.60
2018-03-22T04:51:58.775Z,-2.60
2018-03-22T04:54:26.907Z,-2.60
2018-03-22T04:56:55.051Z,-2.60
2018-03-22T04:59:24.076Z,-2.30
2018-03-22T05:01:52.231Z,-2.40
2018-03-22T05:04:20.434Z,-2.30
2018-03-22T05:06:48.560Z,-2.30
2018-03-22T05:09:16.694Z,-2.30
2018-03-22T05:11:44.818Z,-2.30
2018-03-22T05:14:12.972Z,-2.30
2018-03-22T05:16:41.906Z,-2.20
2018-03-22T05:19:10.101Z,-2.20
2018-03-22T05:21:38.249Z,-2.20
2018-03-22T05:24:06.410Z,-2.20
2018-03-22T05:26:34.551Z,-2.20
2018-03-22T05:29:03.466Z,-2.20
2018-03-22T05:31:31.618Z,-2.20
2018-03-22T05:34:00.648Z,-2.20
2018-03-22T05:36:28.760Z,-2.20
2018-03-22T05:38:57.347Z,-2.10
2018-03-22T05:41:25.475Z,-2.00
2018-03-22T05:43:53.610Z,-2.00
2018-03-22T05:46:22.528Z,-2.30
2018-03-22T05:48:50.643Z,-2.30
2018-03-22T05:51:18.807Z,-2.30
2018-03-22T05:53:47.036Z,-2.30
2018-03-22T05:56:15.171Z,-2.30
2018-03-22T05:58:44.142Z,-2.20
2018-03-22T06:01:13.818Z,-2.20
2018-03-22T06:03:41.966Z,-2.20
2018-03-22T06:06:11.771Z,-2.20
2018-03-22T06:08:39.903Z,-2.20
2018-03-22T06:11:08.085Z,-2.20
2018-03-22T06:13:37.706Z,-2.10
2018-03-22T06:16:06.665Z,-2.00
2018-03-22T06:18:34.816Z,-2.00
2018-03-22T06:21:03.056Z,-2.00
2018-03-22T06:23:31.973Z,-1.90
2018-03-22T06:26:00.123Z,-1.90
2018-03-22T06:28:28.260Z,-1.80
2018-03-22T06:30:56.399Z,-1.90
2018-03-22T06:33:24.562Z,-1.80
2018-03-22T06:35:52.729Z,-1.70
2018-03-22T06:38:20.870Z,-1.70
2018-03-22T06:40:49.780Z,-1.60
2018-03-22T06:43:17.932Z,-1.60
2018-03-22T06:45:46.874Z,-1.40
2018-03-22T06:48:15.024Z,-1.40
2018-03-22T06:50:43.173Z,-1.40
2018-03-22T06:53:11.314Z,-1.40
2018-03-22T06:55:39.452Z,-1.30
2018-03-22T06:58:07.592Z,-1.20
2018-03-22T07:00:35.724Z,-1.10
2018-03-22T07:03:03.866Z,-0.90
2018-03-22T07:05:32.024Z,-0.80
2018-03-22T07:08:00.178Z,-0.70
2018-03-22T07:10:28.356Z,-0.70
2018-03-22T07:12:56.492Z,-0.70
2018-03-22T07:15:24.649Z,-0.70
2018-03-22T07:17:52.767Z,-0.50
2018-03-22T07:20:20.913Z,-0.60
2018-03-22T07:22:49.805Z,-0.60
2018-03-22T07:25:18.722Z,-0.50
2018-03-22T07:27:46.846Z,-0.50
2018-03-22T07:30:15.005Z,-0.30
2018-03-22T07:32:43.136Z,-0.40
2018-03-22T07:35:11.278Z,-0.10
2018-03-22T07:37:40.182Z,0.00
2018-03-22T07:40:08.319Z,0.00
2018-03-22T07:42:36.438Z,0.10
2018-03-22T07:45:09.612Z,0.20
2018-03-22T07:47:38.500Z,0.40
2018-03-22T07:50:07.410Z,0.20
2018-03-22T07:52:35.551Z,0.20
2018-03-22T07:55:04.471Z,0.40
2018-03-22T07:57:32.632Z,0.40
2018-03-22T08:00:01.551Z,0.70
2018-03-22T08:02:29.722Z,0.70
2018-03-22T08:04:57.839Z,0.90
2018-03-22T08:07:26.738Z,1.00
2018-03-22T08:09:54.870Z,1.00
2018-03-22T08:12:23.088Z,1.00
2018-03-22T08:14:51.351Z,1.20
2018-03-22T08:17:19.484Z,0.90
2018-03-22T08:19:47.970Z,0.60
2018-03-22T08:22:16.091Z,0.80
2018-03-22T08:24:44.243Z,0.70
2018-03-22T08:27:12.402Z,0.80
2018-03-22T08:29:41.339Z,1.00
2018-03-22T08:32:09.570Z,1.00
2018-03-22T08:34:38.500Z,1.00
2018-03-22T08:37:06.640Z,1.00
2018-03-22T08:39:35.546Z,1.00
2018-03-22T08:42:03.765Z,1.00
2018-03-22T08:44:31.944Z,1.00
2018-03-22T08:47:00.079Z,1.20
2018-03-22T08:49:28.213Z,1.20
2018-03-22T08:51:57.484Z,1.40
2018-03-22T08:54:25.693Z,1.40
2018-03-22T08:56:53.763Z,1.40
2018-03-22T08:59:21.918Z,1.70
2018-03-22T09:01:50.050Z,1.50
2018-03-22T09:04:18.227Z,1.70
2018-03-22T09:06:46.387Z,2.00
2018-03-22T09:09:14.571Z,2.30
2018-03-22T09:11:42.728Z,2.20
2018-03-22T09:14:11.875Z,2.60
2018-03-22T09:16:40.007Z,2.80
2018-03-22T09:19:08.122Z,2.60
2018-03-22T09:21:37.050Z,2.40
2018-03-22T09:24:05.172Z,2.40
2018-03-22T09:39:57.467Z,2.60
2018-03-22T09:42:25.708Z,2.70
2018-03-22T09:44:53.858Z,2.90
2018-03-22T09:47:22.780Z,2.90
2018-03-22T09:49:50.902Z,2.90
2018-03-22T09:52:19.026Z,2.80
2018-03-22T09:54:47.172Z,2.90
2018-03-22T09:57:15.310Z,2.90
2018-03-22T09:59:44.240Z,2.90
2018-03-22T10:02:12.358Z,2.90
2018-03-22T10:04:40.515Z,2.70
2018-03-22T10:07:08.643Z,3.00
2018-03-22T10:09:37.178Z,3.10
2018-03-22T10:12:05.356Z,3.00
2018-03-22T10:14:33.462Z,3.10
2018-03-22T10:17:01.622Z,3.20
2018-03-22T10:19:30.506Z,3.00
2018-03-22T10:21:59.762Z,3.30
2018-03-22T10:24:28.247Z,3.30
2018-03-22T10:26:56.380Z,3.30
2018-03-22T10:29:24.518Z,3.30
2018-03-22T10:31:52.668Z,3.10
2018-03-22T10:34:20.864Z,3.10
2018-03-22T10:36:49.126Z,3.40
2018-03-22T10:39:17.280Z,3.20
2018-03-22T10:41:45.429Z,3.20
2018-03-22T10:44:13.627Z,3.40
2018-03-22T10:46:41.906Z,3.80
2018-03-22T10:49:10.815Z,4.40
2018-03-22T10:51:38.993Z,4.30
2018-03-22T10:54:07.949Z,4.10
2018-03-22T10:56:36.156Z,4.00
2018-03-22T10:59:05.045Z,4.40
2018-03-22T11:01:39.559Z,3.80
2018-03-22T11:04:07.696Z,3.80
2018-03-22T11:06:35.865Z,3.60
2018-03-22T11:09:04.016Z,3.80
2018-03-22T11:11:32.193Z,3.80
2018-03-22T11:14:00.461Z,3.90
2018-03-22T11:16:28.680Z,3.90
2018-03-22T11:18:56.835Z,4.30
2018-03-22T11:21:24.996Z,4.30
2018-03-22T11:23:53.120Z,4.00
2018-03-22T11:26:21.262Z,3.90
2018-03-22T11:28:49.419Z,4.30
2018-03-22T11:31:17.567Z,3.90
2018-03-22T11:33:45.701Z,3.90
2018-03-22T11:36:13.911Z,4.20
2018-03-22T11:38:42.051Z,4.30
2018-03-22T11:41:10.230Z,4.40
2018-03-22T11:43:38.409Z,4.50
2018-03-22T11:46:06.564Z,4.30
2018-03-22T11:48:35.091Z,4.50
2018-03-22T11:51:03.216Z,4.30
2018-03-22T11:53:32.115Z,4.90
2018-03-22T11:56:00.251Z,4.90
2018-03-22T11:58:28.755Z,4.80
2018-03-22T12:00:57.626Z,4.90
2018-03-22T12:03:25.778Z,4.90
2018-03-22T12:05:53.911Z,4.90
2018-03-22T12:08:22.079Z,4.40
2018-03-22T12:10:50.229Z,4.80
2018-03-22T12:13:19.150Z,4.30
2018-03-22T12:15:47.282Z,4.30
2018-03-22T12:18:15.450Z,4.40
2018-03-22T12:20:44.384Z,4.40
2018-03-22T12:23:12.524Z,4.40
2018-03-22T12:25:40.678Z,4.40
2018-03-22T12:28:08.811Z,4.40
2018-03-22T12:30:36.990Z,4.90
2018-03-22T12:33:05.175Z,5.00
2018-03-22T12:35:33.374Z,4.60
2018-03-22T12:38:02.291Z,5.10
2018-03-22T12:40:30.455Z,5.00
2018-03-22T12:42:58.586Z,4.90
2018-03-22T12:45:26.762Z,4.80
2018-03-22T12:47:54.919Z,4.90
2018-03-22T12:50:23.059Z,4.60
2018-03-22T12:52:51.219Z,4.70
2018-03-22T12:55:19.362Z,4.40
2018-03-22T12:57:48.288Z,4.50
2018-03-22T13:00:16.435Z,4.50
2018-03-22T13:02:45.341Z,3.90
2018-03-22T13:05:13.480Z,4.00
2018-03-22T13:07:41.637Z,3.70
2018-03-22T13:10:09.767Z,3.60
2018-03-22T13:12:37.961Z,3.60
2018-03-22T13:15:06.058Z,3.60
2018-03-22T13:17:34.207Z,3.50
2018-03-22T13:20:02.346Z,3.40
2018-03-22T13:22:30.491Z,3.40
2018-03-22T13:24:59.391Z,3.30
2018-03-22T13:27:27.565Z,3.30
2018-03-22T13:29:56.531Z,3.00
2018-03-22T13:32:24.663Z,3.00
2018-03-22T13:34:52.807Z,2.60
2018-03-22T13:37:20.950Z,2.30
2018-03-22T13:39:49.139Z,2.70
2018-03-22T13:42:18.031Z,2.70
2018-03-22T13:44:46.192Z,2.60
2018-03-22T13:47:15.086Z,2.30
2018-03-22T13:49:44.022Z,2.40
2018-03-22T13:52:12.184Z,2.40
2018-03-22T13:54:40.363Z,2.50
2018-03-22T13:57:08.499Z,2.20
2018-03-22T13:59:36.648Z,2.00
2018-03-22T14:02:05.563Z,2.00
2018-03-22T14:04:33.724Z,2.00
2018-03-22T14:07:02.655Z,1.80
2018-03-22T14:09:30.799Z,1.80
2018-03-22T14:11:58.931Z,1.60
2018-03-22T14:14:27.095Z,1.80
2018-03-22T14:16:55.228Z,1.80
2018-03-22T14:19:23.372Z,1.70
2018-03-22T14:21:51.521Z,1.70
2018-03-22T14:24:20.470Z,1.90
2018-03-22T14:26:49.334Z,2.00
2018-03-22T14:29:17.485Z,2.00
2018-03-22T14:31:46.432Z,1.90
2018-03-22T14:34:14.560Z,1.90
2018-03-22T14:36:42.726Z,1.80
2018-03-22T14:39:10.876Z,1.60
2018-03-22T14:41:39.016Z,1.70
2018-03-22T14:44:07.148Z,1.80
2018-03-22T14:46:35.298Z,1.70
2018-03-22T14:49:04.200Z,1.50
2018-03-22T14:51:33.186Z,1.60
2018-03-22T14:54:02.134Z,1.70
2018-03-22T14:56:30.251Z,1.70
2018-03-22T14:58:59.163Z,1.50
2018-03-22T15:01:27.328Z,1.50
2018-03-22T15:03:55.470Z,1.50
2018-03-22T15:06:23.613Z,1.40
2018-03-22T15:08:51.827Z,1.50
2018-03-22T15:11:20.019Z,1.30
2018-03-22T15:13:48.188Z,1.40
2018-03-22T15:16:16.372Z,1.40
2018-03-22T15:18:44.542Z,1.50
2018-03-22T15:21:12.720Z,1.30
2018-03-22T15:23:40.932Z,1.50
2018-03-22T15:26:09.112Z,1.60
2018-03-22T15:28:37.263Z,1.50
2018-03-22T15:31:05.413Z,1.40
2018-03-22T15:33:33.612Z,1.50
2018-03-22T15:36:01.764Z,1.40
2018-03-22T15:38:30.739Z,1.40
2018-03-22T15:40:58.874Z,1.40
2018-03-22T15:43:27.784Z,1.30
2018-03-22T15:45:55.921Z,1.30
2018-03-22T15:48:24.051Z,1.30
2018-03-22T15:50:52.198Z,1.40
2018-03-22T15:53:20.332Z,1.30
2018-03-22T15:55:48.524Z,1.40
2018-03-22T15:58:16.739Z,1.40
2018-03-22T16:00:44.895Z,1.30
2018-03-22T16:03:13.025Z,1.20
2018-03-22T16:05:41.166Z,1.20
2018-03-22T16:08:09.300Z,1.10
2018-03-22T16:10:37.448Z,1.00
2018-03-22T16:13:06.343Z,0.90
2018-03-22T16:15:34.498Z,0.90
2018-03-22T16:18:03.008Z,0.80
2018-03-22T16:20:31.582Z,0.80
2018-03-22T16:23:00.505Z,0.80
2018-03-22T16:25:28.664Z,0.80
2018-03-22T16:27:56.807Z,0.80
2018-03-22T16:30:25.720Z,0.80
2018-03-22T16:32:53.846Z,0.80
2018-03-22T16:35:22.004Z,0.80
2018-03-22T16:37:50.126Z,0.80
2018-03-22T16:40:18.434Z,0.90
2018-03-22T16:42:46.555Z,0.90
2018-03-22T16:45:15.463Z,0.90
2018-03-22T16:47:44.362Z,0.80
2018-03-22T16:50:12.495Z,0.80
2018-03-22T16:52:40.663Z,0.80
2018-03-22T16:55:08.790Z,0.80
2018-03-22T16:57:36.939Z,0.80
2018-03-22T17:00:05.114Z,0.80
2018-03-22T17:02:33.279Z,0.80
2018-03-22T17:05:02.275Z,0.80
2018-03-22T17:07:30.463Z,0.80
2018-03-22T17:09:58.589Z,0.80
2018-03-22T17:12:26.730Z,0.70
2018-03-22T17:14:54.901Z,0.80
2018-03-22T17:17:23.063Z,0.80
2018-03-22T17:19:51.182Z,0.80
2018-03-22T17:22:20.115Z,0.70
2018-03-22T17:24:48.239Z,0.80
2018-03-22T17:27:16.388Z,0.70
2018-03-22T17:29:44.515Z,0.70
2018-03-22T17:32:12.665Z,0.70
2018-03-22T17:34:41.566Z,0.70
2018-03-22T17:37:18.894Z,0.70
2018-03-22T17:39:56.961Z,0.70
2018-03-22T17:42:26.796Z,0.70
2018-03-22T17:44:54.951Z,0.60
2018-03-22T17:47:23.882Z,0.60
2018-03-22T17:49:52.080Z,0.70
2018-03-22T17:52:22.112Z,0.70
2018-03-22T17:54:50.295Z,0.70
2018-03-22T17:57:18.446Z,0.70
2018-03-22T17:59:46.586Z,0.70
2018-03-22T18:02:14.707Z,0.60
2018-03-22T18:04:42.898Z,0.70
2018-03-22T18:07:11.067Z,0.60
2018-03-22T18:09:39.267Z,0.70
2018-03-22T18:12:07.434Z,0.70
2018-03-22T18:14:35.658Z,0.70
2018-03-22T18:17:03.790Z,0.70
2018-03-22T18:19:31.955Z,0.70
2018-03-22T18:22:00.855Z,0.70
2018-03-22T18:24:29.782Z,0.70
2018-03-22T18:26:58.798Z,0.70
2018-03-22T18:29:26.971Z,0.70
2018-03-22T18:31:55.107Z,0.70
2018-03-22T18:34:23.252Z,0.70
2018-03-22T18:36:51.408Z,0.70
2018-03-22T18:39:19.534Z,0.70
2018-03-22T18:41:48.550Z,0.70
2018-03-22T18:44:16.810Z,0.70
2018-03-22T18:46:45.731Z,0.70
2018-03-22T18:49:13.882Z,0.60
2018-03-22T18:51:42.036Z,0.70
2018-03-22T18:54:10.183Z,0.70
2018-03-22T18:56:38.329Z,0.70
2018-03-22T18:59:06.460Z,0.70
2018-03-22T19:01:35.384Z,0.70
2018-03-22T19:04:03.514Z,0.70
2018-03-22T19:06:32.425Z,0.70
2018-03-22T19:09:00.596Z,0.70
2018-03-22T19:11:28.739Z,0.70
2018-03-22T19:13:57.635Z,0.70
2018-03-22T19:16:26.557Z,0.70
2018-03-22T19:18:54.692Z,0.70
2018-03-22T19:21:23.671Z,0.60
2018-03-22T19:23:51.839Z,0.60
2018-03-22T19:26:20.047Z,0.70
2018-03-22T19:28:48.180Z,0.60
2018-03-22T19:31:16.325Z,0.60
2018-03-22T19:33:44.480Z,0.60
2018-03-22T19:36:12.604Z,0.70
2018-03-22T19:38:40.754Z,0.70
2018-03-22T19:41:08.878Z,0.60
2018-03-22T19:43:37.785Z,0.70
2018-03-22T19:46:05.911Z,0.70
2018-03-22T19:48:35.279Z,0.60
2018-03-22T19:51:03.402Z,0.60
2018-03-22T19:53:31.551Z,0.60
2018-03-22T19:55:59.716Z,0.60
2018-03-22T19:58:28.267Z,0.60
2018-03-22T20:00:56.391Z,0.60
2018-03-22T20:03:25.347Z,0.50
2018-03-22T20:05:53.463Z,0.60
2018-03-22T20:08:21.603Z,0.50
2018-03-22T20:10:49.878Z,0.50
2018-03-22T20:13:18.074Z,0.60
2018-03-22T20:15:47.000Z,0.60
2018-03-22T20:18:15.144Z,0.60
2018-03-22T20:20:44.077Z,0.50
2018-03-22T20:23:12.230Z,0.50
2018-03-22T20:25:40.389Z,0.60
2018-03-22T20:28:08.531Z,0.60
2018-03-22T20:30:37.431Z,0.60
2018-03-22T20:33:06.380Z,0.60
2018-03-22T20:35:34.496Z,0.60
2018-03-22T20:38:03.411Z,0.60
2018-03-22T20:40:32.377Z,0.60
2018-03-22T20:43:01.342Z,0.60
2018-03-22T20:45:29.588Z,0.60
2018-03-22T20:47:57.782Z,0.60
2018-03-22T20:50:25.916Z,0.60
2018-03-22T20:52:54.059Z,0.60
2018-03-22T20:55:22.204Z,0.70
2018-03-22T20:57:50.334Z,0.60
2018-03-22T21:00:18.504Z,0.60
2018-03-22T21:02:46.630Z,0.60
2018-03-22T21:05:15.538Z,0.60
2018-03-22T21:07:43.666Z,0.60
2018-03-22T21:10:13.179Z,0.60
2018-03-22T21:12:41.308Z,0.70
2018-03-22T21:15:09.450Z,0.60
2018-03-22T21:17:38.348Z,0.70
2018-03-22T21:20:06.485Z,0.60
2018-03-22T21:22:34.615Z,0.70
2018-03-22T21:25:02.760Z,0.70
2018-03-22T21:27:30.934Z,0.70
2018-03-22T21:29:59.064Z,0.70
2018-03-22T21:32:27.202Z,0.60
2018-03-22T21:34:55.342Z,0.70
2018-03-22T21:37:23.491Z,0.70
2018-03-22T21:39:51.783Z,0.60
2018-03-22T21:42:20.739Z,0.60
2018-03-22T21:44:48.875Z,0.70
2018-03-22T21:47:28.587Z,0.60
2018-03-22T21:49:57.507Z,0.60
2018-03-22T21:52:37.338Z,0.60
2018-03-22T21:55:05.478Z,0.70
2018-03-22T21:57:33.997Z,0.70
2018-03-22T22:00:02.130Z,0.60
2018-03-22T22:02:30.291Z,0.70
2018-03-22T22:04:59.220Z,0.60
2018-03-22T22:07:28.143Z,0.60
2018-03-22T22:09:56.337Z,0.60
2018-03-22T22:12:24.547Z,0.60
2018-03-22T22:14:52.732Z,0.60
2018-03-22T22:17:20.893Z,0.60
2018-03-22T22:19:49.072Z,0.60
2018-03-22T22:22:17.240Z,0.60
2018-03-22T22:24:45.414Z,0.60
2018-03-22T22:27:13.578Z,0.60
2018-03-22T22:29:41.760Z,0.70
2018-03-22T22:32:10.671Z,0.60
2018-03-22T22:34:38.824Z,0.70
2018-03-22T22:37:06.989Z,0.60
2018-03-22T22:39:35.297Z,0.60
2018-03-22T22:42:03.893Z,0.60
2018-03-22T22:44:32.184Z,0.60
2018-03-22T22:47:00.711Z,0.60
2018-03-22T22:49:28.886Z,0.60
2018-03-22T22:51:58.217Z,0.60
2018-03-22T22:54:26.380Z,0.60
2018-03-22T22:56:54.514Z,0.60
2018-03-22T22:59:22.695Z,0.60
2018-03-22T23:01:50.828Z,0.70
2018-03-22T23:04:18.979Z,0.60
2018-03-22T23:06:47.124Z,0.70
2018-03-22T23:09:15.280Z,0.70
2018-03-22T23:11:44.178Z,0.70
2018-03-22T23:14:12.376Z,0.70
2018-03-22T23:16:40.485Z,0.70
2018-03-22T23:19:08.626Z,0.70
2018-03-22T23:21:36.853Z,0.70
2018-03-22T23:24:05.754Z,0.70
2018-03-22T23:26:33.915Z,0.70
2018-03-22T23:29:02.839Z,0.70
2018-03-22T23:31:30.959Z,0.70
2018-03-22T23:33:59.083Z,0.70
2018-03-22T23:36:27.219Z,0.70
2018-03-22T23:38:56.126Z,0.70
2018-03-22T23:41:24.271Z,0.70
2018-03-22T23:43:53.198Z,0.70
2018-03-22T23:46:21.354Z,0.70
2018-03-22T23:48:49.539Z,0.70
2018-03-22T23:51:17.796Z,0.70
2018-03-22T23:53:45.924Z,0.70
2018-03-22T23:56:14.070Z,0.70
2018-03-22T23:58:42.203Z,0.70
